Airfield :
LOGIN :

Register | Disclaimer

   EN    FR    IT 

 










Legend :    VFR   Marginal VFR   IFR   Intensive IFR   Very Intensive IFR
Visi :
Ceiling :
>= 8 km
>= 3000ft
5 to 8 km
1000 to 3000 ft
1500m to 5 km
500 to 1000 ft
800 to 1500m
200 to 500 ft
< 800m
< 200 ft
Symbols :   Thunderstorms  Fog  Heavy snow  Heavy precipitations  Wind > 20 kt
SIGMETs :     Misc.  Thunderstorms  Icing  Turbulence  Mountain Waves  Volcanic Ashes







- Airport Elevation : 291 ft
- IATA code : ORY
- Download approach charts


LFPO - Paris-Orly

CURRENT METAR :
  • 171100Z 36005KT 310V070 9999 SCT046 23/10 Q1020 NOSIG

EXPIRED METARs :
  • 171030Z 32007KT 250V010 9999 SCT040 21/11 Q1020 NOSIG
  • 171000Z 32007KT 270V030 9999 SCT040 22/11 Q1020 NOSIG
  • 170900Z 02008KT 340V050 9999 SCT028 20/13 Q1020 NOSIG
  • 170830Z 35009KT 310V020 9999 SCT024 SCT066 19/12 Q1020 NOSIG

TAF TAF LFPO
Valid from the 17 at 06:00 until the 18 at 12:00 UTC


170500Z 1706/1812 34008KT CAVOK
PROB30
TEMPO 1706/1708 BKN009
TEMPO 1708/1712 BKN020
TEMPO 1805/1808 VRB02KT
ATIS : +33 1 49 75 65 80
No reported NOTAMs for that airfield.
1 SIGMET reported for the Paris FIR (LFFF) :
 
Severe turbulence
LFFF SIGMET 6 VALID 171000/171400 LFPW
LFFF PARIS FIR/UIR SEV TURB FCST WI N4700 E00215 - N4715 E00200 - N4715 E00030 - N5030 E00315 - N5000 E00500 - N4700 E00215 FL250/350 MOV E 20KT INTSF=



MET'MAP, your aeronautical weather chart ! - Copyright ORBIFLY December 2007 - Disclaimer

ORBIFLY MET'MAP TEAM :

Programming & Development : Alexandra Zaïnal
Concept & Development : Baudouin d'Aumeries
Co-Development & Prog : Marc-Olivier Méhu
Technical & hardware support : Manuel Goepfert

Contact : metmap@orbifly.com




SOURCES & CREDITS :

   NOAA